Time;durP1;ratioP1;P1;durP2;ratioP2;P2;SDS_P1;SDS_P2;PMS_P1;PMS_P2;Temp;Humidity;BMP_temperature;BMP_pressure;BME280_temperature;BME280_humidity;BME280_pressure;Samples;Min_cycle;Max_cycle;Signal;HPM_P1;HPM_P2
2024/03/16 00:03:19;;;;;;;29.90;21.50;;;;;;;5.83;93.31;99079.55;447574;1237;139027;-63
2024/03/16 00:13:22;;;;;;;27.80;20.70;;;;;;;5.70;93.74;99073.24;447396;1238;139260;-63
2024/03/16 00:23:25;;;;;;;27.70;21.60;;;;;;;5.58;94.33;99070.70;447269;1241;139589;-62
2024/03/16 00:33:28;;;;;;;27.90;20.80;;;;;;;5.47;95.01;99064.67;447565;1237;139051;-59
2024/03/16 00:43:32;;;;;;;31.20;22.50;;;;;;;5.38;95.72;99067.73;448388;1239;139423;-60
2024/03/16 00:53:36;;;;;;;32.40;23.40;;;;;;;5.27;96.20;99058.58;448760;1237;139604;-63
2024/03/16 01:03:40;;;;;;;30.10;21.50;;;;;;;5.18;97.14;99056.75;447484;1240;139191;-60
2024/03/16 01:13:43;;;;;;;31.40;22.80;;;;;;;5.10;97.68;99055.07;447200;1240;139102;-60
2024/03/16 01:23:46;;;;;;;30.10;21.70;;;;;;;5.02;98.39;99051.30;446867;1240;140012;-59
2024/03/16 01:33:51;;;;;;;31.20;25.00;;;;;;;5.00;99.41;99042.38;447345;1240;139396;-61
2024/03/16 01:43:54;;;;;;;32.40;23.60;;;;;;;5.13;100.00;99038.48;447375;1236;139570;-60
2024/03/16 01:53:57;;;;;;;27.10;21.70;;;;;;;5.33;100.00;99037.61;447032;1236;139699;-61
2024/03/16 02:04:00;;;;;;;28.40;21.20;;;;;;;5.48;100.00;99040.85;447518;1236;139906;-60
2024/03/16 02:14:03;;;;;;;29.00;21.00;;;;;;;5.59;100.00;99039.79;447971;1240;139235;-59
2024/03/16 02:24:08;;;;;;;28.30;20.90;;;;;;;5.72;100.00;99031.61;447290;1240;139411;-60
2024/03/16 02:34:12;;;;;;;31.90;23.00;;;;;;;5.84;100.00;99020.02;447178;1240;139949;-59
2024/03/16 02:44:16;;;;;;;28.00;21.50;;;;;;;5.85;100.00;99016.73;447305;1236;139506;-63
2024/03/16 02:54:19;;;;;;;31.00;22.90;;;;;;;5.84;100.00;99024.21;447029;1237;140197;-63
2024/03/16 03:04:22;;;;;;;27.90;22.80;;;;;;;5.84;100.00;99031.89;447205;1239;139313;-59
2024/03/16 03:14:25;;;;;;;25.40;19.30;;;;;;;5.88;100.00;99025.94;447104;1237;140036;-59
2024/03/16 03:24:28;;;;;;;31.50;21.70;;;;;;;5.97;100.00;99022.66;447028;1240;139377;-63
2024/03/16 03:34:31;;;;;;;25.10;18.40;;;;;;;6.06;100.00;99019.75;447080;1237;139447;-63
2024/03/16 03:44:38;;;;;;;19.90;15.60;;;;;;;6.27;100.00;99020.37;447581;1241;139914;-62
2024/03/16 03:54:41;;;;;;;16.70;14.10;;;;;;;6.62;100.00;99013.40;447172;1240;139408;-62
2024/03/16 04:04:44;;;;;;;17.70;14.30;;;;;;;6.88;100.00;99004.42;447256;1240;139140;-63
2024/03/16 04:14:47;;;;;;;14.90;13.10;;;;;;;7.10;100.00;99005.77;447306;1240;139161;-63
2024/03/16 04:24:50;;;;;;;14.60;12.90;;;;;;;7.20;100.00;98996.13;448639;1239;139307;-63
2024/03/16 04:34:53;;;;;;;14.90;11.80;;;;;;;7.33;100.00;98996.59;447522;1236;139180;-62
2024/03/16 04:44:57;;;;;;;14.50;12.40;;;;;;;7.46;100.00;99001.08;447741;1235;139321;-65
2024/03/16 04:54:59;;;;;;;15.60;12.40;;;;;;;7.59;100.00;99017.54;447277;1236;140476;-63
2024/03/16 05:05:04;;;;;;;13.50;11.80;;;;;;;7.62;100.00;99030.05;447340;1236;139257;-64
2024/03/16 05:15:08;;;;;;;13.50;11.80;;;;;;;7.69;100.00;99038.14;447548;1238;139180;-63
2024/03/16 05:25:12;;;;;;;17.60;12.60;;;;;;;7.77;100.00;99038.36;447572;1238;139755;-65
2024/03/16 05:35:16;;;;;;;13.20;11.20;;;;;;;7.89;100.00;99042.84;448960;1239;142057;-63
2024/03/16 05:45:19;;;;;;;15.30;11.80;;;;;;;8.01;100.00;99046.70;447993;1236;139663;-64
2024/03/16 05:55:22;;;;;;;12.30;10.10;;;;;;;8.14;100.00;99045.71;447345;1240;139172;-60
2024/03/16 06:05:26;;;;;;;11.00;9.90;;;;;;;8.26;100.00;99046.71;447439;1240;139297;-59
2024/03/16 06:15:29;;;;;;;10.50;9.30;;;;;;;8.40;100.00;99047.20;447585;1236;140176;-63
2024/03/16 06:25:39;;;;;;;12.40;10.40;;;;;;;8.58;100.00;99053.93;447143;1239;139221;-63
2024/03/16 06:35:48;;;;;;;12.30;10.70;;;;;;;8.75;100.00;99058.77;447127;1239;139489;-65
2024/03/16 06:45:51;;;;;;;16.70;12.00;;;;;;;9.03;100.00;99061.84;443654;1236;5109762;-63
2024/03/16 06:55:55;;;;;;;13.00;11.60;;;;;;;9.76;100.00;99069.75;447388;1241;139665;-64
2024/03/16 07:05:58;;;;;;;13.50;11.00;;;;;;;11.01;100.00;99082.27;447714;1239;139475;-63
2024/03/16 07:16:01;;;;;;;13.90;10.20;;;;;;;11.88;100.00;99085.47;447438;1240;139545;-62
2024/03/16 07:26:05;;;;;;;13.30;11.90;;;;;;;11.92;100.00;99103.07;447439;1241;139524;-63
2024/03/16 07:36:08;;;;;;;12.80;11.50;;;;;;;12.91;100.00;99109.65;447199;1236;139585;-61
2024/03/16 07:46:11;;;;;;;12.40;11.10;;;;;;;13.35;100.00;99115.63;447541;1240;140117;-60
2024/03/16 07:56:15;;;;;;;11.40;10.30;;;;;;;13.64;100.00;99117.62;449527;1240;139335;-60
2024/03/16 08:06:18;;;;;;;12.00;10.80;;;;;;;15.00;100.00;99123.64;448819;1240;140318;-62
2024/03/16 08:16:21;;;;;;;9.90;9.10;;;;;;;18.88;100.00;99114.56;447437;1236;140513;-61
2024/03/16 08:26:24;;;;;;;10.50;9.60;;;;;;;25.46;99.35;99105.36;447514;1240;139820;-61
2024/03/16 08:36:28;;;;;;;8.00;7.20;;;;;;;30.22;86.03;99094.16;447295;1236;139111;-61
2024/03/16 08:46:31;;;;;;;7.80;7.10;;;;;;;29.39;72.96;99088.11;447650;1236;138274;-59
2024/03/16 08:56:35;;;;;;;5.50;5.10;;;;;;;28.34;70.93;99080.13;447358;1240;139050;-61
2024/03/16 09:06:40;;;;;;;5.80;5.20;;;;;;;26.26;65.60;99086.98;447495;1240;138413;-65
2024/03/16 09:16:44;;;;;;;7.70;5.50;;;;;;;23.37;61.00;99092.85;447767;1239;138913;-65
2024/03/16 09:26:47;;;;;;;6.90;6.30;;;;;;;21.27;62.78;99082.40;447764;1240;138495;-64
2024/03/16 09:36:50;;;;;;;6.80;6.10;;;;;;;19.18;64.74;99079.63;447713;1240;138351;-66
2024/03/16 09:46:56;;;;;;;8.20;6.80;;;;;;;18.83;67.94;99075.40;448468;1240;139021;-67
2024/03/16 09:56:59;;;;;;;9.10;7.50;;;;;;;18.77;68.68;99070.71;449083;1239;138329;-68
2024/03/16 10:07:03;;;;;;;5.40;4.90;;;;;;;18.87;68.93;99061.27;447911;1240;138857;-63
2024/03/16 10:17:07;;;;;;;4.40;4.00;;;;;;;18.93;68.93;99048.95;447971;1240;138914;-63
2024/03/16 10:27:11;;;;;;;8.30;4.80;;;;;;;18.80;68.17;99049.10;448563;1240;138775;-64
2024/03/16 10:37:15;;;;;;;4.60;3.00;;;;;;;18.56;67.28;99051.92;447692;1240;138466;-69
2024/03/16 10:47:18;;;;;;;5.40;3.90;;;;;;;18.16;67.69;99057.04;447541;1240;138902;-62
2024/03/16 10:57:23;;;;;;;4.10;3.60;;;;;;;18.14;67.85;99053.52;448227;1236;138308;-64
2024/03/16 11:07:26;;;;;;;4.10;2.50;;;;;;;18.16;67.89;99050.63;447823;1240;139303;-64
2024/03/16 11:17:30;;;;;;;2.60;2.00;;;;;;;17.66;66.78;99051.96;448147;1239;139016;-64
2024/03/16 11:27:35;;;;;;;5.20;2.10;;;;;;;17.40;67.49;99059.25;448645;1236;138618;-65
2024/03/16 11:37:38;;;;;;;3.60;2.20;;;;;;;17.28;67.57;99058.51;449666;1240;138866;-64
2024/03/16 11:47:41;;;;;;;2.40;1.80;;;;;;;17.29;68.08;99051.25;447506;1240;138536;-65
2024/03/16 11:57:45;;;;;;;6.80;1.90;;;;;;;17.36;67.71;99054.31;447615;1241;139213;-59
2024/03/16 12:07:48;;;;;;;2.30;1.80;;;;;;;17.72;67.15;99053.20;449175;1240;139202;-58
2024/03/16 12:17:52;;;;;;;2.30;1.10;;;;;;;17.69;66.70;99056.34;447565;1240;138876;-57
2024/03/16 12:28:00;;;;;;;4.40;1.80;;;;;;;17.47;66.09;99058.60;451220;1240;138788;-57
2024/03/16 12:38:07;;;;;;;3.30;1.50;;;;;;;17.35;66.48;99056.70;450163;1240;138770;-65
2024/03/16 12:48:11;;;;;;;3.90;2.30;;;;;;;17.22;66.56;99061.69;452133;1240;138785;-66
2024/03/16 12:58:14;;;;;;;4.40;1.50;;;;;;;16.92;66.99;99061.61;448303;1240;139455;-57
2024/03/16 13:08:18;;;;;;;4.80;2.00;;;;;;;16.83;67.42;99055.14;448882;1240;139017;-62
2024/03/16 13:18:21;;;;;;;5.80;2.20;;;;;;;16.88;67.53;99049.84;448801;1240;138335;-64
2024/03/16 13:28:25;;;;;;;6.40;2.00;;;;;;;16.82;67.91;99049.39;449000;1236;140280;-63
2024/03/16 13:38:28;;;;;;;3.30;2.30;;;;;;;16.72;68.31;99035.68;449494;1236;139501;-59
2024/03/16 13:48:32;;;;;;;4.60;2.20;;;;;;;16.74;68.32;99034.38;449578;1240;138761;-61
2024/03/16 13:58:35;;;;;;;2.70;2.40;;;;;;;16.59;68.04;99027.95;448669;1240;138538;-58
2024/03/16 14:08:40;;;;;;;2.80;1.80;;;;;;;16.47;67.95;99022.44;448954;1240;138608;-62
2024/03/16 14:18:43;;;;;;;1.70;1.60;;;;;;;16.35;68.00;99012.48;448731;1242;138595;-61
2024/03/16 14:28:46;;;;;;;1.80;1.60;;;;;;;16.48;67.70;99005.68;448574;1240;138964;-59
2024/03/16 14:38:53;;;;;;;2.50;1.70;;;;;;;16.54;67.15;99006.15;449644;1236;138423;-59
2024/03/16 14:48:57;;;;;;;2.20;1.90;;;;;;;16.15;67.02;99005.19;449059;1239;138410;-65
2024/03/16 14:59:00;;;;;;;5.10;1.50;;;;;;;15.80;67.74;99006.01;448402;1239;138487;-62
2024/03/16 15:09:07;;;;;;;1.40;1.10;;;;;;;15.63;68.10;99004.04;448022;1239;139217;-58
2024/03/16 15:19:10;;;;;;;2.00;1.50;;;;;;;15.60;67.81;99005.53;448828;1239;138461;-59
2024/03/16 15:29:13;;;;;;;2.10;1.40;;;;;;;15.43;67.67;99006.46;448300;1242;138299;-58
2024/03/16 15:39:17;;;;;;;2.10;1.60;;;;;;;15.06;67.59;99012.45;448215;1240;138540;-59
2024/03/16 15:49:20;;;;;;;2.90;1.30;;;;;;;14.59;68.66;99017.92;448865;1239;138871;-67
2024/03/16 15:59:24;;;;;;;2.70;1.60;;;;;;;14.22;69.83;99022.23;448396;1240;138665;-67
2024/03/16 16:09:27;;;;;;;4.80;3.10;;;;;;;13.88;70.60;99024.15;448227;1240;138874;-66
2024/03/16 16:19:31;;;;;;;5.90;3.60;;;;;;;13.58;71.13;99031.75;448517;1236;140232;-63
2024/03/16 16:29:34;;;;;;;7.40;5.20;;;;;;;13.29;71.81;99037.51;450250;1240;138285;-58
2024/03/16 16:39:38;;;;;;;7.00;4.10;;;;;;;13.13;72.51;99055.85;448144;1240;138990;-51
2024/03/16 16:49:41;;;;;;;5.60;2.80;;;;;;;13.06;73.28;99072.83;448366;1240;138929;-48
2024/03/16 16:59:44;;;;;;;5.00;2.80;;;;;;;12.93;74.07;99084.20;448230;1239;139749;-51
2024/03/16 17:09:47;;;;;;;4.40;3.40;;;;;;;12.73;74.72;99090.73;447879;1240;139439;-49
2024/03/16 17:19:51;;;;;;;13.20;6.00;;;;;;;12.45;75.26;99100.33;448557;1240;140057;-53
2024/03/16 17:29:54;;;;;;;4.60;2.60;;;;;;;12.16;76.14;99127.58;447729;1240;140205;-49
2024/03/16 17:39:57;;;;;;;6.70;4.00;;;;;;;11.89;77.01;99145.54;449288;1240;139875;-60
2024/03/16 17:50:00;;;;;;;18.40;9.90;;;;;;;11.56;77.82;99152.04;448533;1240;140039;-60
2024/03/16 18:00:04;;;;;;;110.20;59.10;;;;;;;11.13;79.01;99158.16;448514;1240;139786;-58
2024/03/16 18:10:08;;;;;;;29.10;17.40;;;;;;;10.75;80.25;99163.17;450562;1240;140581;-59
2024/03/16 18:20:12;;;;;;;16.10;8.80;;;;;;;10.48;81.84;99169.06;448060;1240;139821;-48
2024/03/16 18:30:16;;;;;;;43.60;23.00;;;;;;;10.32;83.80;99168.59;452138;1239;139533;-53
2024/03/16 18:40:20;;;;;;;16.10;9.80;;;;;;;10.29;85.58;99169.84;444633;1240;5144818;-58
2024/03/16 18:50:23;;;;;;;16.20;11.10;;;;;;;10.27;86.98;99183.41;448831;1240;141834;-59
2024/03/16 19:00:29;;;;;;;26.40;15.50;;;;;;;10.22;88.31;99188.14;448360;1240;139500;-59
2024/03/16 19:10:32;;;;;;;20.90;11.70;;;;;;;10.15;89.42;99199.46;448108;1238;152706;-61
2024/03/16 19:20:35;;;;;;;14.70;8.80;;;;;;;10.07;90.53;99202.61;448065;1239;139759;-62
2024/03/16 19:30:41;;;;;;;16.80;9.70;;;;;;;10.04;91.03;99203.36;448004;1240;139698;-59
2024/03/16 19:40:52;;;;;;;10.80;7.60;;;;;;;10.01;91.38;99207.91;448465;1240;139635;-60
2024/03/16 19:50:55;;;;;;;19.60;11.10;;;;;;;9.96;92.02;99211.23;448326;1241;140263;-58
2024/03/16 20:00:58;;;;;;;11.90;6.80;;;;;;;9.99;93.14;99223.48;448267;1237;140128;-57
2024/03/16 20:11:02;;;;;;;11.30;6.50;;;;;;;10.01;93.92;99239.61;450636;1240;139443;-61
2024/03/16 20:21:07;;;;;;;6.20;4.70;;;;;;;10.12;94.46;99253.92;448055;1241;139795;-62
2024/03/16 20:31:10;;;;;;;4.70;3.30;;;;;;;10.19;94.16;99268.11;448863;1237;139593;-61
2024/03/16 20:41:17;;;;;;;4.20;1.90;;;;;;;10.15;94.22;99288.51;449658;1238;139194;-60
2024/03/16 20:51:21;;;;;;;2.60;1.90;;;;;;;10.01;94.23;99299.58;448085;1239;139260;-61
2024/03/16 21:01:24;;;;;;;2.40;2.20;;;;;;;9.84;94.76;99317.27;447805;1239;142184;-57
2024/03/16 21:11:28;;;;;;;3.30;2.80;;;;;;;9.61;95.38;99329.60;447063;1240;139467;-62
2024/03/16 21:21:32;;;;;;;3.70;3.30;;;;;;;9.35;96.46;99339.42;455707;1236;139656;-62
2024/03/16 21:31:37;;;;;;;3.20;2.90;;;;;;;9.17;97.05;99356.23;455691;1236;138999;-57
2024/03/16 21:41:41;;;;;;;1.70;1.60;;;;;;;8.98;97.39;99369.67;455735;1236;139500;-58
2024/03/16 21:51:45;;;;;;;1.30;1.20;;;;;;;8.71;97.39;99400.22;455648;1236;139177;-59
2024/03/16 22:01:48;;;;;;;1.30;1.20;;;;;;;8.06;96.13;99442.63;455686;1235;139521;-58
2024/03/16 22:11:51;;;;;;;3.60;2.60;;;;;;;7.42;96.06;99472.39;455799;1235;139248;-69
2024/03/16 22:21:55;;;;;;;3.50;2.60;;;;;;;6.79;96.09;99489.48;455743;1236;139295;-58
2024/03/16 22:31:59;;;;;;;5.40;3.10;;;;;;;6.30;97.44;99500.20;455712;1236;139595;-57
2024/03/16 22:42:02;;;;;;;3.80;3.00;;;;;;;6.05;98.65;99522.01;455787;1236;139187;-57
2024/03/16 22:52:06;;;;;;;4.50;3.40;;;;;;;5.95;99.55;99536.72;455708;1236;139121;-58
2024/03/16 23:02:12;;;;;;;4.80;3.60;;;;;;;5.85;99.77;99549.33;455676;1235;139293;-60
2024/03/16 23:12:15;;;;;;;9.00;4.20;;;;;;;5.71;100.00;99561.22;454276;1236;139198;-60
2024/03/16 23:22:18;;;;;;;6.50;3.60;;;;;;;5.62;100.00;99564.93;448820;1236;139070;-58
2024/03/16 23:32:22;;;;;;;10.80;3.90;;;;;;;5.58;100.00;99578.79;447820;1240;140397;-59
2024/03/16 23:42:25;;;;;;;4.20;3.60;;;;;;;5.57;100.00;99588.05;447992;1239;139032;-60
2024/03/16 23:52:28;;;;;;;8.50;4.60;;;;;;;5.54;100.00;99588.17;448389;1239;139251;-59
